sensor_id;sensor_type;location;lat;lon;timestamp;P1;durP1;ratioP1;P2;durP2;ratioP2
77495;SDS011;66600;48.378;9.948;2023-09-08T00:00:05;7.97;;;6.10;;
77495;SDS011;66600;48.378;9.948;2023-09-08T00:00:37;7.55;;;5.95;;
77495;SDS011;66600;48.378;9.948;2023-09-08T00:01:07;7.65;;;5.82;;
77495;SDS011;66600;48.378;9.948;2023-09-08T00:01:37;10.75;;;6.25;;
77495;SDS011;66600;48.378;9.948;2023-09-08T00:02:08;12.50;;;6.05;;
77495;SDS011;66600;48.378;9.948;2023-09-08T00:02:38;10.65;;;6.15;;
77495;SDS011;66600;48.378;9.948;2023-09-08T00:03:08;8.85;;;6.13;;
77495;SDS011;66600;48.378;9.948;2023-09-08T00:03:39;8.02;;;6.07;;
77495;SDS011;66600;48.378;9.948;2023-09-08T00:04:09;9.57;;;6.10;;
77495;SDS011;66600;48.378;9.948;2023-09-08T00:04:40;8.13;;;6.03;;
77495;SDS011;66600;48.378;9.948;2023-09-08T00:05:10;12.57;;;6.55;;
77495;SDS011;66600;48.378;9.948;2023-09-08T00:05:41;9.00;;;6.00;;
77495;SDS011;66600;48.378;9.948;2023-09-08T00:06:11;7.88;;;5.72;;
77495;SDS011;66600;48.378;9.948;2023-09-08T00:06:42;8.15;;;6.22;;
77495;SDS011;66600;48.378;9.948;2023-09-08T00:07:12;9.85;;;6.25;;
77495;SDS011;66600;48.378;9.948;2023-09-08T00:07:42;7.68;;;6.35;;
77495;SDS011;66600;48.378;9.948;2023-09-08T00:08:13;7.70;;;6.10;;
77495;SDS011;66600;48.378;9.948;2023-09-08T00:08:43;8.05;;;6.00;;
77495;SDS011;66600;48.378;9.948;2023-09-08T00:09:14;9.00;;;5.82;;
77495;SDS011;66600;48.378;9.948;2023-09-08T00:09:44;10.70;;;6.13;;
77495;SDS011;66600;48.378;9.948;2023-09-08T00:10:14;8.63;;;6.20;;
77495;SDS011;66600;48.378;9.948;2023-09-08T00:10:45;7.95;;;6.40;;
77495;SDS011;66600;48.378;9.948;2023-09-08T00:11:16;9.15;;;6.15;;
77495;SDS011;66600;48.378;9.948;2023-09-08T00:11:47;6.97;;;6.03;;
77495;SDS011;66600;48.378;9.948;2023-09-08T00:12:18;7.95;;;6.30;;
77495;SDS011;66600;48.378;9.948;2023-09-08T00:12:48;7.95;;;6.35;;
77495;SDS011;66600;48.378;9.948;2023-09-08T00:13:18;8.57;;;6.53;;
77495;SDS011;66600;48.378;9.948;2023-09-08T00:13:50;8.43;;;6.28;;
77495;SDS011;66600;48.378;9.948;2023-09-08T00:14:20;8.73;;;5.88;;
77495;SDS011;66600;48.378;9.948;2023-09-08T00:14:51;7.45;;;6.28;;
77495;SDS011;66600;48.378;9.948;2023-09-08T00:15:22;9.63;;;5.80;;
77495;SDS011;66600;48.378;9.948;2023-09-08T00:15:52;7.68;;;6.13;;
77495;SDS011;66600;48.378;9.948;2023-09-08T00:16:22;9.05;;;6.10;;
77495;SDS011;66600;48.378;9.948;2023-09-08T00:16:53;8.73;;;5.97;;
77495;SDS011;66600;48.378;9.948;2023-09-08T00:17:26;11.52;;;6.32;;
77495;SDS011;66600;48.378;9.948;2023-09-08T00:17:56;8.70;;;6.18;;
77495;SDS011;66600;48.378;9.948;2023-09-08T00:18:27;10.05;;;6.57;;
77495;SDS011;66600;48.378;9.948;2023-09-08T00:18:57;9.85;;;6.25;;
77495;SDS011;66600;48.378;9.948;2023-09-08T00:19:31;7.63;;;6.03;;
77495;SDS011;66600;48.378;9.948;2023-09-08T00:20:01;9.45;;;6.53;;
77495;SDS011;66600;48.378;9.948;2023-09-08T00:20:34;11.00;;;6.53;;
77495;SDS011;66600;48.378;9.948;2023-09-08T00:21:06;9.48;;;6.47;;
77495;SDS011;66600;48.378;9.948;2023-09-08T00:21:36;9.77;;;6.10;;
77495;SDS011;66600;48.378;9.948;2023-09-08T00:22:07;7.60;;;6.30;;
77495;SDS011;66600;48.378;9.948;2023-09-08T00:22:37;7.53;;;6.45;;
77495;SDS011;66600;48.378;9.948;2023-09-08T00:23:08;9.30;;;6.43;;
77495;SDS011;66600;48.378;9.948;2023-09-08T00:23:38;7.85;;;6.20;;
77495;SDS011;66600;48.378;9.948;2023-09-08T00:24:09;8.05;;;5.80;;
77495;SDS011;66600;48.378;9.948;2023-09-08T00:24:39;10.57;;;5.95;;
77495;SDS011;66600;48.378;9.948;2023-09-08T00:25:09;8.18;;;6.43;;
77495;SDS011;66600;48.378;9.948;2023-09-08T00:25:40;8.70;;;6.43;;
77495;SDS011;66600;48.378;9.948;2023-09-08T00:26:10;11.65;;;7.10;;
77495;SDS011;66600;48.378;9.948;2023-09-08T00:26:41;8.10;;;6.35;;
77495;SDS011;66600;48.378;9.948;2023-09-08T00:27:11;9.43;;;6.47;;
77495;SDS011;66600;48.378;9.948;2023-09-08T00:27:41;8.02;;;6.35;;
77495;SDS011;66600;48.378;9.948;2023-09-08T00:28:12;8.57;;;6.05;;
77495;SDS011;66600;48.378;9.948;2023-09-08T00:28:42;7.72;;;6.22;;
77495;SDS011;66600;48.378;9.948;2023-09-08T00:29:12;8.48;;;5.97;;
77495;SDS011;66600;48.378;9.948;2023-09-08T00:29:43;8.88;;;6.00;;
77495;SDS011;66600;48.378;9.948;2023-09-08T00:30:13;9.75;;;6.22;;
77495;SDS011;66600;48.378;9.948;2023-09-08T00:30:43;8.70;;;6.30;;
77495;SDS011;66600;48.378;9.948;2023-09-08T00:31:14;8.93;;;6.00;;
77495;SDS011;66600;48.378;9.948;2023-09-08T00:31:44;9.57;;;6.10;;
77495;SDS011;66600;48.378;9.948;2023-09-08T00:32:15;8.23;;;6.28;;
77495;SDS011;66600;48.378;9.948;2023-09-08T00:32:46;10.65;;;5.85;;
77495;SDS011;66600;48.378;9.948;2023-09-08T00:33:16;7.28;;;5.43;;
77495;SDS011;66600;48.378;9.948;2023-09-08T00:33:47;9.57;;;6.63;;
77495;SDS011;66600;48.378;9.948;2023-09-08T00:34:17;8.52;;;6.05;;
77495;SDS011;66600;48.378;9.948;2023-09-08T00:34:47;7.28;;;5.90;;
77495;SDS011;66600;48.378;9.948;2023-09-08T00:35:18;7.40;;;5.75;;
77495;SDS011;66600;48.378;9.948;2023-09-08T00:35:48;9.00;;;5.57;;
77495;SDS011;66600;48.378;9.948;2023-09-08T00:36:19;8.40;;;6.05;;
77495;SDS011;66600;48.378;9.948;2023-09-08T00:36:49;8.05;;;5.93;;
77495;SDS011;66600;48.378;9.948;2023-09-08T00:37:19;8.48;;;6.45;;
77495;SDS011;66600;48.378;9.948;2023-09-08T00:37:50;10.10;;;6.55;;
77495;SDS011;66600;48.378;9.948;2023-09-08T00:38:20;7.53;;;5.85;;
77495;SDS011;66600;48.378;9.948;2023-09-08T00:38:50;9.55;;;6.28;;
77495;SDS011;66600;48.378;9.948;2023-09-08T00:39:21;9.57;;;5.93;;
77495;SDS011;66600;48.378;9.948;2023-09-08T00:39:51;8.65;;;5.97;;
77495;SDS011;66600;48.378;9.948;2023-09-08T00:40:22;7.97;;;5.97;;
77495;SDS011;66600;48.378;9.948;2023-09-08T00:40:52;10.88;;;5.90;;
77495;SDS011;66600;48.378;9.948;2023-09-08T00:41:22;10.90;;;6.18;;
77495;SDS011;66600;48.378;9.948;2023-09-08T00:41:53;7.53;;;5.93;;
77495;SDS011;66600;48.378;9.948;2023-09-08T00:42:24;9.90;;;5.72;;
77495;SDS011;66600;48.378;9.948;2023-09-08T00:42:54;8.40;;;5.97;;
77495;SDS011;66600;48.378;9.948;2023-09-08T00:43:24;10.10;;;5.80;;
77495;SDS011;66600;48.378;9.948;2023-09-08T00:43:55;7.78;;;5.72;;
77495;SDS011;66600;48.378;9.948;2023-09-08T00:44:25;10.15;;;5.95;;
77495;SDS011;66600;48.378;9.948;2023-09-08T00:44:55;8.75;;;6.43;;
77495;SDS011;66600;48.378;9.948;2023-09-08T00:45:26;7.95;;;6.05;;
77495;SDS011;66600;48.378;9.948;2023-09-08T00:46:00;7.50;;;5.97;;
77495;SDS011;66600;48.378;9.948;2023-09-08T00:46:32;7.93;;;5.40;;
77495;SDS011;66600;48.378;9.948;2023-09-08T00:47:03;9.35;;;6.00;;
77495;SDS011;66600;48.378;9.948;2023-09-08T00:47:33;7.32;;;6.22;;
77495;SDS011;66600;48.378;9.948;2023-09-08T00:48:05;7.43;;;5.40;;
77495;SDS011;66600;48.378;9.948;2023-09-08T00:48:35;9.15;;;6.20;;
77495;SDS011;66600;48.378;9.948;2023-09-08T00:49:05;8.02;;;5.80;;
77495;SDS011;66600;48.378;9.948;2023-09-08T00:49:36;8.45;;;5.78;;
77495;SDS011;66600;48.378;9.948;2023-09-08T00:50:07;8.70;;;5.90;;
77495;SDS011;66600;48.378;9.948;2023-09-08T00:50:37;8.25;;;5.57;;
77495;SDS011;66600;48.378;9.948;2023-09-08T00:51:08;8.05;;;5.72;;
77495;SDS011;66600;48.378;9.948;2023-09-08T00:51:39;8.60;;;5.80;;
77495;SDS011;66600;48.378;9.948;2023-09-08T00:52:10;8.98;;;6.03;;
77495;SDS011;66600;48.378;9.948;2023-09-08T00:52:40;9.63;;;6.20;;
77495;SDS011;66600;48.378;9.948;2023-09-08T00:53:11;7.35;;;5.90;;
77495;SDS011;66600;48.378;9.948;2023-09-08T00:53:41;10.18;;;5.88;;
77495;SDS011;66600;48.378;9.948;2023-09-08T00:54:12;10.35;;;5.80;;
77495;SDS011;66600;48.378;9.948;2023-09-08T00:54:42;8.30;;;5.78;;
77495;SDS011;66600;48.378;9.948;2023-09-08T00:55:13;7.03;;;5.60;;
77495;SDS011;66600;48.378;9.948;2023-09-08T00:55:44;8.88;;;6.10;;
77495;SDS011;66600;48.378;9.948;2023-09-08T00:56:15;8.20;;;5.72;;
77495;SDS011;66600;48.378;9.948;2023-09-08T00:56:45;10.23;;;6.40;;
77495;SDS011;66600;48.378;9.948;2023-09-08T00:57:16;7.65;;;5.80;;
77495;SDS011;66600;48.378;9.948;2023-09-08T00:57:47;8.73;;;5.82;;
77495;SDS011;66600;48.378;9.948;2023-09-08T00:58:17;8.35;;;6.03;;
77495;SDS011;66600;48.378;9.948;2023-09-08T00:58:48;8.25;;;5.80;;
77495;SDS011;66600;48.378;9.948;2023-09-08T00:59:18;9.30;;;5.60;;
77495;SDS011;66600;48.378;9.948;2023-09-08T00:59:48;9.38;;;6.00;;
77495;SDS011;66600;48.378;9.948;2023-09-08T01:00:19;7.70;;;6.47;;
77495;SDS011;66600;48.378;9.948;2023-09-08T01:00:49;8.13;;;5.70;;
77495;SDS011;66600;48.378;9.948;2023-09-08T01:01:19;9.00;;;6.40;;
77495;SDS011;66600;48.378;9.948;2023-09-08T01:01:50;7.97;;;6.35;;
77495;SDS011;66600;48.378;9.948;2023-09-08T01:02:21;8.05;;;6.15;;
77495;SDS011;66600;48.378;9.948;2023-09-08T01:02:52;7.32;;;5.70;;
77495;SDS011;66600;48.378;9.948;2023-09-08T01:03:23;8.30;;;6.10;;
77495;SDS011;66600;48.378;9.948;2023-09-08T01:03:54;10.38;;;6.20;;
77495;SDS011;66600;48.378;9.948;2023-09-08T01:04:24;8.32;;;5.97;;
77495;SDS011;66600;48.378;9.948;2023-09-08T01:04:55;8.25;;;5.75;;
77495;SDS011;66600;48.378;9.948;2023-09-08T01:05:25;10.73;;;6.10;;
77495;SDS011;66600;48.378;9.948;2023-09-08T01:05:55;8.60;;;5.93;;
77495;SDS011;66600;48.378;9.948;2023-09-08T01:06:26;11.52;;;6.25;;
77495;SDS011;66600;48.378;9.948;2023-09-08T01:06:57;9.63;;;5.82;;
77495;SDS011;66600;48.378;9.948;2023-09-08T01:07:28;8.60;;;6.10;;
77495;SDS011;66600;48.378;9.948;2023-09-08T01:08:00;7.57;;;6.22;;
77495;SDS011;66600;48.378;9.948;2023-09-08T01:08:31;8.40;;;6.15;;
77495;SDS011;66600;48.378;9.948;2023-09-08T01:09:02;7.22;;;6.25;;
77495;SDS011;66600;48.378;9.948;2023-09-08T01:09:33;8.82;;;6.80;;
77495;SDS011;66600;48.378;9.948;2023-09-08T01:10:04;7.93;;;6.10;;
77495;SDS011;66600;48.378;9.948;2023-09-08T01:10:36;7.90;;;6.20;;
77495;SDS011;66600;48.378;9.948;2023-09-08T01:11:07;8.52;;;6.63;;
77495;SDS011;66600;48.378;9.948;2023-09-08T01:11:37;7.65;;;6.00;;
77495;SDS011;66600;48.378;9.948;2023-09-08T01:12:08;8.43;;;6.53;;
77495;SDS011;66600;48.378;9.948;2023-09-08T01:12:38;9.98;;;6.30;;
77495;SDS011;66600;48.378;9.948;2023-09-08T01:13:09;9.50;;;6.55;;
77495;SDS011;66600;48.378;9.948;2023-09-08T01:13:40;7.97;;;6.25;;
77495;SDS011;66600;48.378;9.948;2023-09-08T01:14:13;7.38;;;6.32;;
77495;SDS011;66600;48.378;9.948;2023-09-08T01:14:43;7.75;;;6.22;;
77495;SDS011;66600;48.378;9.948;2023-09-08T01:15:14;9.27;;;6.13;;
77495;SDS011;66600;48.378;9.948;2023-09-08T01:15:44;11.77;;;6.25;;
77495;SDS011;66600;48.378;9.948;2023-09-08T01:16:14;9.18;;;6.80;;
77495;SDS011;66600;48.378;9.948;2023-09-08T01:16:45;9.68;;;6.60;;
77495;SDS011;66600;48.378;9.948;2023-09-08T01:17:15;8.27;;;5.82;;
77495;SDS011;66600;48.378;9.948;2023-09-08T01:17:46;8.07;;;6.05;;
77495;SDS011;66600;48.378;9.948;2023-09-08T01:18:16;9.45;;;6.45;;
77495;SDS011;66600;48.378;9.948;2023-09-08T01:18:46;9.32;;;6.60;;
77495;SDS011;66600;48.378;9.948;2023-09-08T01:19:19;8.95;;;6.03;;
77495;SDS011;66600;48.378;9.948;2023-09-08T01:19:49;8.43;;;6.13;;
77495;SDS011;66600;48.378;9.948;2023-09-08T01:20:30;7.80;;;6.15;;
77495;SDS011;66600;48.378;9.948;2023-09-08T01:23:29;10.05;;;6.55;;
77495;SDS011;66600;48.378;9.948;2023-09-08T01:25:25;8.23;;;6.60;;
77495;SDS011;66600;48.378;9.948;2023-09-08T01:26:04;7.75;;;6.10;;
77495;SDS011;66600;48.378;9.948;2023-09-08T01:26:40;8.52;;;6.50;;
77495;SDS011;66600;48.378;9.948;2023-09-08T01:27:11;8.85;;;6.75;;
77495;SDS011;66600;48.378;9.948;2023-09-08T01:27:48;9.50;;;6.45;;
77495;SDS011;66600;48.378;9.948;2023-09-08T01:28:20;10.82;;;6.50;;
77495;SDS011;66600;48.378;9.948;2023-09-08T01:28:52;8.30;;;6.35;;
77495;SDS011;66600;48.378;9.948;2023-09-08T01:29:23;9.13;;;6.78;;
77495;SDS011;66600;48.378;9.948;2023-09-08T01:29:55;8.50;;;6.35;;
77495;SDS011;66600;48.378;9.948;2023-09-08T01:30:27;12.02;;;7.00;;
77495;SDS011;66600;48.378;9.948;2023-09-08T01:30:59;9.32;;;6.60;;
77495;SDS011;66600;48.378;9.948;2023-09-08T01:31:30;8.65;;;6.65;;
77495;SDS011;66600;48.378;9.948;2023-09-08T01:32:00;9.70;;;7.07;;
77495;SDS011;66600;48.378;9.948;2023-09-08T01:32:31;8.88;;;6.57;;
77495;SDS011;66600;48.378;9.948;2023-09-08T01:33:02;8.32;;;6.72;;
77495;SDS011;66600;48.378;9.948;2023-09-08T01:33:33;8.93;;;6.85;;
77495;SDS011;66600;48.378;9.948;2023-09-08T01:34:03;9.82;;;6.68;;
77495;SDS011;66600;48.378;9.948;2023-09-08T01:34:37;9.13;;;6.28;;
77495;SDS011;66600;48.378;9.948;2023-09-08T01:35:09;10.13;;;6.82;;
77495;SDS011;66600;48.378;9.948;2023-09-08T01:35:40;8.00;;;6.57;;
77495;SDS011;66600;48.378;9.948;2023-09-08T01:36:11;9.60;;;7.13;;
77495;SDS011;66600;48.378;9.948;2023-09-08T01:36:42;8.20;;;6.55;;
77495;SDS011;66600;48.378;9.948;2023-09-08T01:37:13;9.93;;;6.88;;
77495;SDS011;66600;48.378;9.948;2023-09-08T01:37:47;9.02;;;6.80;;
77495;SDS011;66600;48.378;9.948;2023-09-08T01:38:18;9.52;;;6.93;;
77495;SDS011;66600;48.378;9.948;2023-09-08T01:38:51;8.18;;;6.88;;
77495;SDS011;66600;48.378;9.948;2023-09-08T01:39:22;8.77;;;6.70;;
77495;SDS011;66600;48.378;9.948;2023-09-08T01:39:52;11.23;;;6.80;;
77495;SDS011;66600;48.378;9.948;2023-09-08T01:40:22;9.02;;;6.38;;
77495;SDS011;66600;48.378;9.948;2023-09-08T01:40:53;10.40;;;7.47;;
77495;SDS011;66600;48.378;9.948;2023-09-08T01:41:23;9.98;;;7.30;;
77495;SDS011;66600;48.378;9.948;2023-09-08T01:41:53;8.48;;;7.25;;
77495;SDS011;66600;48.378;9.948;2023-09-08T01:42:24;10.73;;;7.10;;
77495;SDS011;66600;48.378;9.948;2023-09-08T01:42:54;11.77;;;7.63;;
77495;SDS011;66600;48.378;9.948;2023-09-08T01:43:24;10.38;;;7.22;;
77495;SDS011;66600;48.378;9.948;2023-09-08T01:43:55;8.85;;;6.95;;
77495;SDS011;66600;48.378;9.948;2023-09-08T01:44:25;10.65;;;7.43;;
77495;SDS011;66600;48.378;9.948;2023-09-08T01:44:55;9.52;;;6.85;;
77495;SDS011;66600;48.378;9.948;2023-09-08T01:45:26;9.18;;;7.20;;
77495;SDS011;66600;48.378;9.948;2023-09-08T01:45:56;9.77;;;7.00;;
77495;SDS011;66600;48.378;9.948;2023-09-08T01:46:27;9.43;;;7.20;;
77495;SDS011;66600;48.378;9.948;2023-09-08T01:46:57;10.02;;;7.13;;
77495;SDS011;66600;48.378;9.948;2023-09-08T01:47:29;8.60;;;6.97;;
77495;SDS011;66600;48.378;9.948;2023-09-08T01:47:59;9.85;;;7.35;;
77495;SDS011;66600;48.378;9.948;2023-09-08T01:48:30;8.02;;;6.53;;
77495;SDS011;66600;48.378;9.948;2023-09-08T01:49:00;9.45;;;7.05;;
77495;SDS011;66600;48.378;9.948;2023-09-08T01:49:31;11.18;;;7.53;;
77495;SDS011;66600;48.378;9.948;2023-09-08T01:50:01;11.65;;;7.32;;
77495;SDS011;66600;48.378;9.948;2023-09-08T01:50:32;10.07;;;6.80;;
77495;SDS011;66600;48.378;9.948;2023-09-08T01:51:02;10.20;;;7.45;;
77495;SDS011;66600;48.378;9.948;2023-09-08T01:51:32;8.57;;;6.47;;
77495;SDS011;66600;48.378;9.948;2023-09-08T01:52:03;9.63;;;6.85;;
77495;SDS011;66600;48.378;9.948;2023-09-08T01:52:35;9.95;;;7.40;;
77495;SDS011;66600;48.378;9.948;2023-09-08T01:53:05;9.00;;;6.85;;
77495;SDS011;66600;48.378;9.948;2023-09-08T01:53:35;12.80;;;7.25;;
77495;SDS011;66600;48.378;9.948;2023-09-08T01:54:06;8.98;;;6.57;;
77495;SDS011;66600;48.378;9.948;2023-09-08T01:54:36;8.45;;;6.75;;
77495;SDS011;66600;48.378;9.948;2023-09-08T01:55:06;9.50;;;7.25;;
77495;SDS011;66600;48.378;9.948;2023-09-08T01:55:38;10.73;;;7.32;;
77495;SDS011;66600;48.378;9.948;2023-09-08T01:56:08;8.68;;;7.00;;
77495;SDS011;66600;48.378;9.948;2023-09-08T01:56:38;9.40;;;7.35;;
77495;SDS011;66600;48.378;9.948;2023-09-08T01:57:09;11.13;;;7.45;;
77495;SDS011;66600;48.378;9.948;2023-09-08T01:57:39;9.35;;;7.25;;
77495;SDS011;66600;48.378;9.948;2023-09-08T01:58:09;9.90;;;7.55;;
77495;SDS011;66600;48.378;9.948;2023-09-08T01:58:40;10.27;;;6.75;;
77495;SDS011;66600;48.378;9.948;2023-09-08T01:59:10;10.02;;;7.45;;
77495;SDS011;66600;48.378;9.948;2023-09-08T01:59:40;9.70;;;6.93;;
77495;SDS011;66600;48.378;9.948;2023-09-08T02:00:11;11.68;;;7.55;;
77495;SDS011;66600;48.378;9.948;2023-09-08T02:00:42;10.10;;;7.47;;
77495;SDS011;66600;48.378;9.948;2023-09-08T02:01:12;11.30;;;7.43;;
77495;SDS011;66600;48.378;9.948;2023-09-08T02:01:43;10.90;;;7.43;;
77495;SDS011;66600;48.378;9.948;2023-09-08T02:02:13;10.65;;;7.88;;
77495;SDS011;66600;48.378;9.948;2023-09-08T02:02:44;10.88;;;7.75;;
77495;SDS011;66600;48.378;9.948;2023-09-08T02:03:15;9.98;;;7.75;;
77495;SDS011;66600;48.378;9.948;2023-09-08T02:03:46;9.60;;;7.18;;
77495;SDS011;66600;48.378;9.948;2023-09-08T02:04:16;9.00;;;7.43;;
77495;SDS011;66600;48.378;9.948;2023-09-08T02:04:47;10.85;;;7.57;;
77495;SDS011;66600;48.378;9.948;2023-09-08T02:05:18;9.30;;;7.03;;
77495;SDS011;66600;48.378;9.948;2023-09-08T02:05:48;8.82;;;7.10;;
77495;SDS011;66600;48.378;9.948;2023-09-08T02:06:18;11.13;;;7.72;;
77495;SDS011;66600;48.378;9.948;2023-09-08T02:06:49;10.43;;;7.60;;
77495;SDS011;66600;48.378;9.948;2023-09-08T02:07:19;10.20;;;7.03;;
77495;SDS011;66600;48.378;9.948;2023-09-08T02:07:49;10.65;;;7.57;;
77495;SDS011;66600;48.378;9.948;2023-09-08T02:08:20;14.27;;;7.45;;
77495;SDS011;66600;48.378;9.948;2023-09-08T02:08:50;9.70;;;7.50;;
77495;SDS011;66600;48.378;9.948;2023-09-08T02:09:20;12.85;;;7.43;;
77495;SDS011;66600;48.378;9.948;2023-09-08T02:09:51;10.18;;;7.40;;
77495;SDS011;66600;48.378;9.948;2023-09-08T02:10:21;11.73;;;7.55;;
77495;SDS011;66600;48.378;9.948;2023-09-08T02:10:51;11.13;;;7.40;;
77495;SDS011;66600;48.378;9.948;2023-09-08T02:11:22;10.60;;;7.85;;
77495;SDS011;66600;48.378;9.948;2023-09-08T02:11:52;9.30;;;7.75;;
77495;SDS011;66600;48.378;9.948;2023-09-08T02:12:22;12.73;;;8.48;;
77495;SDS011;66600;48.378;9.948;2023-09-08T02:12:53;10.32;;;7.82;;
77495;SDS011;66600;48.378;9.948;2023-09-08T02:13:23;10.30;;;7.68;;
77495;SDS011;66600;48.378;9.948;2023-09-08T02:13:54;9.93;;;7.95;;
77495;SDS011;66600;48.378;9.948;2023-09-08T02:14:24;11.15;;;7.90;;
77495;SDS011;66600;48.378;9.948;2023-09-08T02:14:54;12.27;;;8.52;;
77495;SDS011;66600;48.378;9.948;2023-09-08T02:15:25;10.18;;;7.88;;
77495;SDS011;66600;48.378;9.948;2023-09-08T02:15:55;10.30;;;7.97;;
77495;SDS011;66600;48.378;9.948;2023-09-08T02:16:26;10.88;;;7.95;;
77495;SDS011;66600;48.378;9.948;2023-09-08T02:16:56;10.55;;;7.97;;
77495;SDS011;66600;48.378;9.948;2023-09-08T02:17:27;13.60;;;8.48;;
77495;SDS011;66600;48.378;9.948;2023-09-08T02:17:57;10.25;;;7.63;;
77495;SDS011;66600;48.378;9.948;2023-09-08T02:18:28;10.43;;;8.20;;
77495;SDS011;66600;48.378;9.948;2023-09-08T02:18:58;11.25;;;8.07;;
77495;SDS011;66600;48.378;9.948;2023-09-08T02:19:29;11.18;;;8.00;;
77495;SDS011;66600;48.378;9.948;2023-09-08T02:19:59;10.82;;;7.72;;
77495;SDS011;66600;48.378;9.948;2023-09-08T02:20:29;11.48;;;8.40;;
77495;SDS011;66600;48.378;9.948;2023-09-08T02:21:00;9.65;;;7.80;;
77495;SDS011;66600;48.378;9.948;2023-09-08T02:21:30;10.30;;;7.80;;
77495;SDS011;66600;48.378;9.948;2023-09-08T02:22:00;10.85;;;8.20;;
77495;SDS011;66600;48.378;9.948;2023-09-08T02:22:31;10.50;;;7.65;;
77495;SDS011;66600;48.378;9.948;2023-09-08T02:23:05;10.88;;;8.40;;
77495;SDS011;66600;48.378;9.948;2023-09-08T02:23:36;11.73;;;8.15;;
77495;SDS011;66600;48.378;9.948;2023-09-08T02:24:07;10.40;;;8.30;;
77495;SDS011;66600;48.378;9.948;2023-09-08T02:24:38;11.18;;;8.00;;
77495;SDS011;66600;48.378;9.948;2023-09-08T02:25:08;12.55;;;8.32;;
77495;SDS011;66600;48.378;9.948;2023-09-08T02:25:38;9.40;;;7.40;;
77495;SDS011;66600;48.378;9.948;2023-09-08T02:26:09;11.30;;;8.32;;
77495;SDS011;66600;48.378;9.948;2023-09-08T02:26:41;10.40;;;7.85;;
77495;SDS011;66600;48.378;9.948;2023-09-08T02:27:11;11.32;;;8.35;;
77495;SDS011;66600;48.378;9.948;2023-09-08T02:27:42;10.82;;;8.13;;
77495;SDS011;66600;48.378;9.948;2023-09-08T02:28:12;12.10;;;8.20;;
77495;SDS011;66600;48.378;9.948;2023-09-08T02:28:42;11.85;;;8.45;;
77495;SDS011;66600;48.378;9.948;2023-09-08T02:29:13;13.77;;;7.72;;
77495;SDS011;66600;48.378;9.948;2023-09-08T02:29:43;12.80;;;7.93;;
77495;SDS011;66600;48.378;9.948;2023-09-08T02:30:13;11.18;;;7.93;;
77495;SDS011;66600;48.378;9.948;2023-09-08T02:30:44;12.18;;;7.75;;
77495;SDS011;66600;48.378;9.948;2023-09-08T02:31:14;11.90;;;8.13;;
77495;SDS011;66600;48.378;9.948;2023-09-08T02:31:45;10.00;;;8.15;;
77495;SDS011;66600;48.378;9.948;2023-09-08T02:32:15;12.18;;;8.63;;
77495;SDS011;66600;48.378;9.948;2023-09-08T02:32:45;11.70;;;8.45;;
77495;SDS011;66600;48.378;9.948;2023-09-08T02:33:16;10.55;;;8.25;;
77495;SDS011;66600;48.378;9.948;2023-09-08T02:33:46;11.52;;;8.73;;
77495;SDS011;66600;48.378;9.948;2023-09-08T02:34:17;10.30;;;8.07;;
77495;SDS011;66600;48.378;9.948;2023-09-08T02:34:47;11.90;;;8.30;;
77495;SDS011;66600;48.378;9.948;2023-09-08T02:35:19;12.40;;;8.88;;
77495;SDS011;66600;48.378;9.948;2023-09-08T02:35:50;12.52;;;8.27;;
77495;SDS011;66600;48.378;9.948;2023-09-08T02:36:20;14.68;;;8.05;;
77495;SDS011;66600;48.378;9.948;2023-09-08T02:36:55;10.82;;;8.15;;
77495;SDS011;66600;48.378;9.948;2023-09-08T02:37:25;12.02;;;8.15;;
77495;SDS011;66600;48.378;9.948;2023-09-08T02:37:56;11.23;;;8.68;;
77495;SDS011;66600;48.378;9.948;2023-09-08T02:38:26;11.52;;;8.30;;
77495;SDS011;66600;48.378;9.948;2023-09-08T02:38:56;11.60;;;8.73;;
77495;SDS011;66600;48.378;9.948;2023-09-08T02:39:27;10.65;;;7.80;;
77495;SDS011;66600;48.378;9.948;2023-09-08T02:39:58;11.63;;;8.35;;
77495;SDS011;66600;48.378;9.948;2023-09-08T02:40:28;12.23;;;8.95;;
77495;SDS011;66600;48.378;9.948;2023-09-08T02:40:59;9.38;;;7.80;;
77495;SDS011;66600;48.378;9.948;2023-09-08T02:41:29;12.95;;;8.63;;
77495;SDS011;66600;48.378;9.948;2023-09-08T02:41:59;11.82;;;8.20;;
77495;SDS011;66600;48.378;9.948;2023-09-08T02:42:30;11.32;;;8.32;;
77495;SDS011;66600;48.378;9.948;2023-09-08T02:43:00;10.90;;;7.93;;
77495;SDS011;66600;48.378;9.948;2023-09-08T02:43:31;9.93;;;8.15;;
77495;SDS011;66600;48.378;9.948;2023-09-08T02:44:01;10.68;;;8.70;;
77495;SDS011;66600;48.378;9.948;2023-09-08T02:44:32;9.93;;;8.38;;
77495;SDS011;66600;48.378;9.948;2023-09-08T02:45:02;11.57;;;8.90;;
77495;SDS011;66600;48.378;9.948;2023-09-08T02:45:33;10.10;;;8.25;;
77495;SDS011;66600;48.378;9.948;2023-09-08T02:46:03;12.00;;;8.55;;
77495;SDS011;66600;48.378;9.948;2023-09-08T02:46:33;12.07;;;8.57;;
77495;SDS011;66600;48.378;9.948;2023-09-08T02:47:04;13.18;;;8.27;;
77495;SDS011;66600;48.378;9.948;2023-09-08T02:47:36;12.20;;;8.60;;
77495;SDS011;66600;48.378;9.948;2023-09-08T02:48:06;10.82;;;8.18;;
77495;SDS011;66600;48.378;9.948;2023-09-08T02:48:37;11.27;;;8.25;;
77495;SDS011;66600;48.378;9.948;2023-09-08T02:49:08;11.25;;;8.80;;
77495;SDS011;66600;48.378;9.948;2023-09-08T02:49:38;12.07;;;8.20;;
77495;SDS011;66600;48.378;9.948;2023-09-08T02:50:09;10.13;;;8.02;;
77495;SDS011;66600;48.378;9.948;2023-09-08T02:50:39;11.18;;;8.40;;
77495;SDS011;66600;48.378;9.948;2023-09-08T02:51:10;12.00;;;8.23;;
77495;SDS011;66600;48.378;9.948;2023-09-08T02:51:42;10.77;;;8.00;;
77495;SDS011;66600;48.378;9.948;2023-09-08T02:52:12;12.30;;;8.57;;
77495;SDS011;66600;48.378;9.948;2023-09-08T02:52:43;11.80;;;8.32;;
77495;SDS011;66600;48.378;9.948;2023-09-08T02:53:13;11.52;;;8.55;;
77495;SDS011;66600;48.378;9.948;2023-09-08T02:53:44;12.25;;;8.50;;
77495;SDS011;66600;48.378;9.948;2023-09-08T02:54:14;10.20;;;7.85;;
77495;SDS011;66600;48.378;9.948;2023-09-08T02:54:45;11.43;;;7.93;;
77495;SDS011;66600;48.378;9.948;2023-09-08T02:55:15;9.52;;;7.78;;
77495;SDS011;66600;48.378;9.948;2023-09-08T02:55:45;11.02;;;8.48;;
77495;SDS011;66600;48.378;9.948;2023-09-08T02:56:16;9.77;;;7.97;;
77495;SDS011;66600;48.378;9.948;2023-09-08T02:56:46;12.15;;;8.23;;
77495;SDS011;66600;48.378;9.948;2023-09-08T02:57:17;11.63;;;7.95;;
77495;SDS011;66600;48.378;9.948;2023-09-08T02:57:47;11.65;;;8.15;;
77495;SDS011;66600;48.378;9.948;2023-09-08T02:58:17;11.02;;;8.23;;
77495;SDS011;66600;48.378;9.948;2023-09-08T02:58:48;11.98;;;7.93;;
77495;SDS011;66600;48.378;9.948;2023-09-08T02:59:18;10.05;;;7.82;;
77495;SDS011;66600;48.378;9.948;2023-09-08T02:59:49;12.05;;;8.18;;
77495;SDS011;66600;48.378;9.948;2023-09-08T03:00:21;13.43;;;7.85;;
77495;SDS011;66600;48.378;9.948;2023-09-08T03:00:51;11.38;;;8.43;;
77495;SDS011;66600;48.378;9.948;2023-09-08T03:01:22;10.00;;;8.30;;
77495;SDS011;66600;48.378;9.948;2023-09-08T03:01:52;11.88;;;8.07;;
77495;SDS011;66600;48.378;9.948;2023-09-08T03:02:24;10.80;;;7.78;;
77495;SDS011;66600;48.378;9.948;2023-09-08T03:02:55;12.48;;;8.00;;
77495;SDS011;66600;48.378;9.948;2023-09-08T03:03:25;10.63;;;8.02;;
77495;SDS011;66600;48.378;9.948;2023-09-08T03:03:55;9.68;;;7.82;;
77495;SDS011;66600;48.378;9.948;2023-09-08T03:04:26;11.05;;;8.30;;
77495;SDS011;66600;48.378;9.948;2023-09-08T03:04:56;12.38;;;7.93;;
77495;SDS011;66600;48.378;9.948;2023-09-08T03:05:27;10.50;;;8.40;;
77495;SDS011;66600;48.378;9.948;2023-09-08T03:05:57;10.27;;;8.20;;
77495;SDS011;66600;48.378;9.948;2023-09-08T03:06:30;12.48;;;8.57;;
77495;SDS011;66600;48.378;9.948;2023-09-08T03:07:00;9.60;;;7.55;;
77495;SDS011;66600;48.378;9.948;2023-09-08T03:07:31;10.27;;;8.20;;